sensor_id;sensor_type;location;lat;lon;timestamp;pressure;altitude;pressure_sealevel;temperature;humidity
20119;BME280;10220;42.716;23.306;2022-10-31T00:02:16;95718.97;;;15.48;94.55
20119;BME280;10220;42.716;23.306;2022-10-31T00:04:42;95729.84;;;15.45;94.92
20119;BME280;10220;42.716;23.306;2022-10-31T00:07:07;95698.19;;;15.24;96.74
20119;BME280;10220;42.716;23.306;2022-10-31T00:09:32;95717.81;;;15.44;99.76
20119;BME280;10220;42.716;23.306;2022-10-31T00:11:58;95734.22;;;15.09;99.23
20119;BME280;10220;42.716;23.306;2022-10-31T00:14:23;95736.53;;;15.41;98.13
20119;BME280;10220;42.716;23.306;2022-10-31T00:16:48;95723.84;;;15.27;100.00
20119;BME280;10220;42.716;23.306;2022-10-31T00:19:14;95689.81;;;14.97;99.93
20119;BME280;10220;42.716;23.306;2022-10-31T00:21:39;95737.69;;;15.45;100.00
20119;BME280;10220;42.716;23.306;2022-10-31T00:24:05;95750.38;;;15.59;100.00
20119;BME280;10220;42.716;23.306;2022-10-31T00:26:31;95741.09;;;15.45;100.00
20119;BME280;10220;42.716;23.306;2022-10-31T00:28:57;95723.53;;;15.34;100.00
20119;BME280;10220;42.716;23.306;2022-10-31T00:31:23;95731.22;;;15.47;100.00
20119;BME280;10220;42.716;23.306;2022-10-31T00:33:48;95728.06;;;15.45;100.00
20119;BME280;10220;42.716;23.306;2022-10-31T00:36:17;95698.53;;;15.27;100.00
20119;BME280;10220;42.716;23.306;2022-10-31T00:38:43;95743.41;;;15.71;100.00
20119;BME280;10220;42.716;23.306;2022-10-31T00:41:11;95729.59;;;15.82;100.00
20119;BME280;10220;42.716;23.306;2022-10-31T00:43:36;95668.84;;;15.39;100.00
20119;BME280;10220;42.716;23.306;2022-10-31T00:46:02;95677.06;;;15.72;100.00
20119;BME280;10220;42.716;23.306;2022-10-31T00:48:28;95709.06;;;15.97;99.58
20119;BME280;10220;42.716;23.306;2022-10-31T00:50:53;95718.53;;;15.51;100.00
20119;BME280;10220;42.716;23.306;2022-10-31T00:53:19;95738.72;;;15.44;100.00
20119;BME280;10220;42.716;23.306;2022-10-31T00:55:44;95735.44;;;15.48;100.00
20119;BME280;10220;42.716;23.306;2022-10-31T00:58:10;95693.44;;;15.14;100.00
20119;BME280;10220;42.716;23.306;2022-10-31T01:00:35;95744.44;;;14.92;100.00
20119;BME280;10220;42.716;23.306;2022-10-31T01:03:00;95734.34;;;15.20;100.00
20119;BME280;10220;42.716;23.306;2022-10-31T01:05:26;95718.78;;;15.07;100.00
20119;BME280;10220;42.716;23.306;2022-10-31T01:07:51;95733.13;;;15.40;100.00
20119;BME280;10220;42.716;23.306;2022-10-31T01:10:17;95716.53;;;15.35;100.00
20119;BME280;10220;42.716;23.306;2022-10-31T01:12:45;95751.09;;;15.66;100.00
20119;BME280;10220;42.716;23.306;2022-10-31T01:15:13;95741.16;;;15.57;100.00
20119;BME280;10220;42.716;23.306;2022-10-31T01:17:39;95730.34;;;15.71;100.00
20119;BME280;10220;42.716;23.306;2022-10-31T01:20:07;95720.28;;;15.39;100.00
20119;BME280;10220;42.716;23.306;2022-10-31T01:22:33;95747.53;;;15.79;100.00
20119;BME280;10220;42.716;23.306;2022-10-31T01:24:58;95755.47;;;16.01;100.00
20119;BME280;10220;42.716;23.306;2022-10-31T01:27:24;95741.78;;;16.17;100.00
20119;BME280;10220;42.716;23.306;2022-10-31T01:29:49;95696.91;;;15.91;100.00
20119;BME280;10220;42.716;23.306;2022-10-31T01:32:14;95743.19;;;16.02;100.00
20119;BME280;10220;42.716;23.306;2022-10-31T01:34:40;95761.00;;;15.93;100.00
20119;BME280;10220;42.716;23.306;2022-10-31T01:37:05;95737.13;;;15.90;100.00
20119;BME280;10220;42.716;23.306;2022-10-31T01:39:31;95755.88;;;15.87;100.00
20119;BME280;10220;42.716;23.306;2022-10-31T01:41:56;95751.88;;;15.85;100.00
20119;BME280;10220;42.716;23.306;2022-10-31T01:52:06;95754.25;;;14.72;100.00
20119;BME280;10220;42.716;23.306;2022-10-31T01:54:39;95772.53;;;14.42;100.00
20119;BME280;10220;42.716;23.306;2022-10-31T01:57:08;95757.16;;;14.34;100.00
20119;BME280;10220;42.716;23.306;2022-10-31T01:59:37;95769.69;;;14.50;100.00
20119;BME280;10220;42.716;23.306;2022-10-31T02:02:05;95771.06;;;14.52;100.00
20119;BME280;10220;42.716;23.306;2022-10-31T02:04:31;95771.03;;;14.28;100.00
20119;BME280;10220;42.716;23.306;2022-10-31T02:07:08;95747.00;;;14.26;100.00
20119;BME280;10220;42.716;23.306;2022-10-31T02:09:36;95724.03;;;13.73;100.00
20119;BME280;10220;42.716;23.306;2022-10-31T02:12:03;95719.84;;;14.33;100.00
20119;BME280;10220;42.716;23.306;2022-10-31T02:14:30;95741.72;;;14.81;100.00
20119;BME280;10220;42.716;23.306;2022-10-31T02:16:56;95749.59;;;14.50;100.00
20119;BME280;10220;42.716;23.306;2022-10-31T02:41:16;95773.88;;;14.51;100.00
20119;BME280;10220;42.716;23.306;2022-10-31T02:43:56;95771.41;;;15.04;100.00
20119;BME280;10220;42.716;23.306;2022-10-31T02:46:46;95771.81;;;14.35;100.00
20119;BME280;10220;42.716;23.306;2022-10-31T02:49:30;95776.69;;;14.73;100.00
20119;BME280;10220;42.716;23.306;2022-10-31T02:51:58;95754.41;;;15.20;100.00
20119;BME280;10220;42.716;23.306;2022-10-31T02:54:25;95746.31;;;15.27;100.00
20119;BME280;10220;42.716;23.306;2022-10-31T02:56:55;95777.09;;;15.01;100.00
20119;BME280;10220;42.716;23.306;2022-10-31T02:59:23;95781.81;;;14.38;100.00
20119;BME280;10220;42.716;23.306;2022-10-31T03:09:41;95785.06;;;14.58;100.00
20119;BME280;10220;42.716;23.306;2022-10-31T03:15:00;95796.13;;;14.77;100.00
20119;BME280;10220;42.716;23.306;2022-10-31T03:17:36;95782.84;;;14.61;100.00
20119;BME280;10220;42.716;23.306;2022-10-31T03:20:04;95793.63;;;14.89;100.00
20119;BME280;10220;42.716;23.306;2022-10-31T03:22:31;95780.63;;;13.90;100.00
20119;BME280;10220;42.716;23.306;2022-10-31T03:25:00;95804.31;;;14.57;100.00
20119;BME280;10220;42.716;23.306;2022-10-31T03:27:30;95782.88;;;15.03;100.00
20119;BME280;10220;42.716;23.306;2022-10-31T03:30:00;95792.50;;;14.54;100.00
20119;BME280;10220;42.716;23.306;2022-10-31T03:32:47;95791.28;;;15.29;100.00
20119;BME280;10220;42.716;23.306;2022-10-31T03:35:17;95810.41;;;14.75;100.00
20119;BME280;10220;42.716;23.306;2022-10-31T03:37:45;95810.81;;;14.72;100.00
20119;BME280;10220;42.716;23.306;2022-10-31T03:40:13;95800.53;;;15.26;100.00
20119;BME280;10220;42.716;23.306;2022-10-31T03:42:43;95784.06;;;14.83;100.00
20119;BME280;10220;42.716;23.306;2022-10-31T03:45:19;95819.84;;;15.00;100.00
20119;BME280;10220;42.716;23.306;2022-10-31T03:47:46;95809.63;;;14.44;100.00
20119;BME280;10220;42.716;23.306;2022-10-31T03:50:13;95819.03;;;15.24;100.00
20119;BME280;10220;42.716;23.306;2022-10-31T03:52:59;95802.97;;;15.63;100.00
20119;BME280;10220;42.716;23.306;2022-10-31T03:55:45;95809.41;;;15.00;100.00
20119;BME280;10220;42.716;23.306;2022-10-31T03:58:29;95800.94;;;14.80;100.00
20119;BME280;10220;42.716;23.306;2022-10-31T04:00:58;95793.97;;;14.74;100.00
20119;BME280;10220;42.716;23.306;2022-10-31T04:03:28;95808.31;;;15.32;100.00
20119;BME280;10220;42.716;23.306;2022-10-31T04:05:58;95816.28;;;14.95;100.00
20119;BME280;10220;42.716;23.306;2022-10-31T04:08:30;95818.06;;;15.19;100.00
20119;BME280;10220;42.716;23.306;2022-10-31T04:10:59;95831.22;;;14.81;100.00
20119;BME280;10220;42.716;23.306;2022-10-31T04:13:29;95826.94;;;14.32;100.00
20119;BME280;10220;42.716;23.306;2022-10-31T04:15:56;95825.88;;;14.46;100.00
20119;BME280;10220;42.716;23.306;2022-10-31T04:18:23;95826.41;;;14.23;100.00
20119;BME280;10220;42.716;23.306;2022-10-31T04:20:49;95824.28;;;14.38;100.00
20119;BME280;10220;42.716;23.306;2022-10-31T04:23:25;95841.41;;;14.89;100.00
20119;BME280;10220;42.716;23.306;2022-10-31T04:25:51;95816.44;;;15.00;100.00
20119;BME280;10220;42.716;23.306;2022-10-31T04:28:17;95813.47;;;15.38;100.00
20119;BME280;10220;42.716;23.306;2022-10-31T04:30:43;95827.16;;;15.58;100.00
20119;BME280;10220;42.716;23.306;2022-10-31T04:33:08;95782.81;;;15.34;100.00
20119;BME280;10220;42.716;23.306;2022-10-31T04:35:34;95830.97;;;16.09;100.00
20119;BME280;10220;42.716;23.306;2022-10-31T04:37:59;95812.84;;;15.96;100.00
20119;BME280;10220;42.716;23.306;2022-10-31T04:40:25;95828.88;;;16.00;100.00
20119;BME280;10220;42.716;23.306;2022-10-31T04:42:50;95803.13;;;15.68;100.00
20119;BME280;10220;42.716;23.306;2022-10-31T04:45:15;95806.81;;;15.78;100.00
20119;BME280;10220;42.716;23.306;2022-10-31T04:47:41;95695.09;;;14.24;100.00
20119;BME280;10220;42.716;23.306;2022-10-31T04:50:06;95843.03;;;14.84;100.00
20119;BME280;10220;42.716;23.306;2022-10-31T04:52:32;95827.94;;;14.92;100.00
20119;BME280;10220;42.716;23.306;2022-10-31T04:54:58;95816.41;;;15.66;100.00
20119;BME280;10220;42.716;23.306;2022-10-31T04:57:23;95835.50;;;15.67;100.00
20119;BME280;10220;42.716;23.306;2022-10-31T04:59:48;95857.81;;;14.66;100.00
20119;BME280;10220;42.716;23.306;2022-10-31T05:02:14;95837.69;;;13.42;100.00
20119;BME280;10220;42.716;23.306;2022-10-31T05:04:39;95839.53;;;13.15;100.00
20119;BME280;10220;42.716;23.306;2022-10-31T05:07:04;95816.06;;;13.35;100.00
20119;BME280;10220;42.716;23.306;2022-10-31T05:09:30;95866.56;;;14.09;100.00
20119;BME280;10220;42.716;23.306;2022-10-31T05:11:55;95841.13;;;13.99;100.00
20119;BME280;10220;42.716;23.306;2022-10-31T05:14:21;95858.88;;;14.58;100.00
20119;BME280;10220;42.716;23.306;2022-10-31T05:16:46;95850.63;;;15.16;100.00
20119;BME280;10220;42.716;23.306;2022-10-31T05:19:11;95853.84;;;14.57;100.00
20119;BME280;10220;42.716;23.306;2022-10-31T05:21:37;95881.69;;;14.69;100.00
20119;BME280;10220;42.716;23.306;2022-10-31T05:24:02;95828.56;;;13.76;100.00
20119;BME280;10220;42.716;23.306;2022-10-31T05:26:28;95882.28;;;14.34;100.00
20119;BME280;10220;42.716;23.306;2022-10-31T05:28:53;95885.69;;;13.71;100.00
20119;BME280;10220;42.716;23.306;2022-10-31T05:31:19;95900.75;;;13.44;100.00
20119;BME280;10220;42.716;23.306;2022-10-31T05:33:44;95887.16;;;13.03;100.00
20119;BME280;10220;42.716;23.306;2022-10-31T05:36:09;95893.47;;;13.84;100.00
20119;BME280;10220;42.716;23.306;2022-10-31T05:38:35;95892.66;;;13.77;100.00
20119;BME280;10220;42.716;23.306;2022-10-31T05:41:00;95884.75;;;14.60;100.00
20119;BME280;10220;42.716;23.306;2022-10-31T05:43:27;95908.88;;;13.92;100.00
20119;BME280;10220;42.716;23.306;2022-10-31T05:45:56;95893.97;;;12.97;100.00
20119;BME280;10220;42.716;23.306;2022-10-31T05:48:21;95882.59;;;14.00;100.00
20119;BME280;10220;42.716;23.306;2022-10-31T05:50:48;95862.53;;;14.51;100.00
20119;BME280;10220;42.716;23.306;2022-10-31T05:53:14;95896.38;;;15.19;100.00
20119;BME280;10220;42.716;23.306;2022-10-31T05:55:40;95875.84;;;15.28;100.00
20119;BME280;10220;42.716;23.306;2022-10-31T05:58:09;95905.84;;;15.13;100.00
20119;BME280;10220;42.716;23.306;2022-10-31T06:00:34;95885.44;;;14.79;100.00
20119;BME280;10220;42.716;23.306;2022-10-31T06:03:05;95897.31;;;15.30;100.00
20119;BME280;10220;42.716;23.306;2022-10-31T06:05:31;95910.47;;;15.84;100.00
20119;BME280;10220;42.716;23.306;2022-10-31T06:07:57;95903.56;;;16.07;100.00
20119;BME280;10220;42.716;23.306;2022-10-31T06:10:23;95901.53;;;15.74;100.00
20119;BME280;10220;42.716;23.306;2022-10-31T06:12:48;95901.91;;;15.04;100.00
20119;BME280;10220;42.716;23.306;2022-10-31T06:15:14;95890.03;;;15.39;100.00
20119;BME280;10220;42.716;23.306;2022-10-31T06:17:40;95913.09;;;16.20;100.00
20119;BME280;10220;42.716;23.306;2022-10-31T06:20:06;95918.81;;;15.75;100.00
20119;BME280;10220;42.716;23.306;2022-10-31T06:22:32;95936.09;;;15.51;100.00
20119;BME280;10220;42.716;23.306;2022-10-31T06:24:57;95911.72;;;15.99;100.00
20119;BME280;10220;42.716;23.306;2022-10-31T06:27:23;95912.72;;;15.81;100.00
20119;BME280;10220;42.716;23.306;2022-10-31T06:29:49;95925.81;;;15.56;100.00
20119;BME280;10220;42.716;23.306;2022-10-31T06:32:15;95918.03;;;15.92;100.00
20119;BME280;10220;42.716;23.306;2022-10-31T06:34:40;95934.75;;;16.62;100.00
20119;BME280;10220;42.716;23.306;2022-10-31T06:37:07;95931.38;;;17.03;100.00
20119;BME280;10220;42.716;23.306;2022-10-31T06:39:33;95940.28;;;16.54;100.00
20119;BME280;10220;42.716;23.306;2022-10-31T06:41:58;95911.72;;;16.53;100.00
20119;BME280;10220;42.716;23.306;2022-10-31T06:44:24;95917.75;;;16.00;100.00
20119;BME280;10220;42.716;23.306;2022-10-31T06:46:49;95927.56;;;16.22;100.00
20119;BME280;10220;42.716;23.306;2022-10-31T06:49:15;95927.50;;;16.29;100.00
20119;BME280;10220;42.716;23.306;2022-10-31T06:51:40;95939.63;;;15.39;100.00
20119;BME280;10220;42.716;23.306;2022-10-31T06:54:06;95915.13;;;16.18;100.00
20119;BME280;10220;42.716;23.306;2022-10-31T06:56:31;95924.34;;;16.74;100.00
20119;BME280;10220;42.716;23.306;2022-10-31T06:58:57;95941.28;;;16.53;100.00
20119;BME280;10220;42.716;23.306;2022-10-31T07:01:22;95924.34;;;16.74;100.00
20119;BME280;10220;42.716;23.306;2022-10-31T07:03:48;95921.38;;;16.17;100.00
20119;BME280;10220;42.716;23.306;2022-10-31T07:06:13;95911.44;;;16.43;100.00
20119;BME280;10220;42.716;23.306;2022-10-31T07:08:38;95922.09;;;16.24;100.00
20119;BME280;10220;42.716;23.306;2022-10-31T07:11:04;95937.66;;;15.59;100.00
20119;BME280;10220;42.716;23.306;2022-10-31T07:13:29;95921.38;;;15.57;100.00
20119;BME280;10220;42.716;23.306;2022-10-31T07:16:00;95930.06;;;15.27;100.00
20119;BME280;10220;42.716;23.306;2022-10-31T07:18:26;95938.03;;;15.62;100.00
20119;BME280;10220;42.716;23.306;2022-10-31T07:20:52;95924.22;;;15.97;100.00
20119;BME280;10220;42.716;23.306;2022-10-31T07:23:18;95926.84;;;16.33;100.00
20119;BME280;10220;42.716;23.306;2022-10-31T07:25:43;95933.84;;;15.97;100.00
20119;BME280;10220;42.716;23.306;2022-10-31T07:28:09;95919.50;;;16.42;100.00
20119;BME280;10220;42.716;23.306;2022-10-31T07:30:35;95864.50;;;16.48;100.00
20119;BME280;10220;42.716;23.306;2022-10-31T07:33:01;95904.19;;;16.74;100.00
20119;BME280;10220;42.716;23.306;2022-10-31T07:35:28;95921.31;;;17.00;100.00
20119;BME280;10220;42.716;23.306;2022-10-31T07:37:54;95908.19;;;16.77;100.00
20119;BME280;10220;42.716;23.306;2022-10-31T07:40:20;95869.44;;;16.20;100.00
20119;BME280;10220;42.716;23.306;2022-10-31T07:42:48;95913.22;;;16.60;100.00
20119;BME280;10220;42.716;23.306;2022-10-31T07:45:18;95904.63;;;16.71;100.00
20119;BME280;10220;42.716;23.306;2022-10-31T07:47:52;95913.69;;;16.87;100.00
20119;BME280;10220;42.716;23.306;2022-10-31T07:50:20;95922.69;;;17.02;100.00
20119;BME280;10220;42.716;23.306;2022-10-31T07:52:46;95906.09;;;16.67;100.00
20119;BME280;10220;42.716;23.306;2022-10-31T07:55:12;95898.09;;;16.92;100.00
20119;BME280;10220;42.716;23.306;2022-10-31T07:57:38;95910.75;;;17.47;100.00
20119;BME280;10220;42.716;23.306;2022-10-31T08:00:08;95904.38;;;17.77;100.00
20119;BME280;10220;42.716;23.306;2022-10-31T08:02:34;95914.53;;;17.85;100.00
20119;BME280;10220;42.716;23.306;2022-10-31T08:04:59;95912.25;;;18.00;100.00
20119;BME280;10220;42.716;23.306;2022-10-31T08:07:27;95894.25;;;17.80;98.45
20119;BME280;10220;42.716;23.306;2022-10-31T08:09:52;95918.00;;;18.36;99.02
20119;BME280;10220;42.716;23.306;2022-10-31T08:12:18;95917.78;;;18.77;92.76
20119;BME280;10220;42.716;23.306;2022-10-31T08:14:44;95896.56;;;18.39;91.00
20119;BME280;10220;42.716;23.306;2022-10-31T08:17:10;95875.38;;;18.18;95.87
20119;BME280;10220;42.716;23.306;2022-10-31T08:19:35;95912.69;;;18.20;95.80
20119;BME280;10220;42.716;23.306;2022-10-31T08:22:01;95911.53;;;18.04;99.22
20119;BME280;10220;42.716;23.306;2022-10-31T08:24:26;95919.59;;;18.37;98.81
20119;BME280;10220;42.716;23.306;2022-10-31T08:26:52;95908.25;;;18.59;96.46
20119;BME280;10220;42.716;23.306;2022-10-31T08:29:17;95914.13;;;18.38;96.82
20119;BME280;10220;42.716;23.306;2022-10-31T08:31:43;95907.13;;;17.70;99.16
20119;BME280;10220;42.716;23.306;2022-10-31T08:34:08;95896.22;;;18.35;100.00
20119;BME280;10220;42.716;23.306;2022-10-31T08:36:34;95906.91;;;19.01;96.71
20119;BME280;10220;42.716;23.306;2022-10-31T08:38:59;95905.31;;;19.28;91.04
20119;BME280;10220;42.716;23.306;2022-10-31T08:41:25;95897.38;;;19.39;90.99
20119;BME280;10220;42.716;23.306;2022-10-31T08:43:50;95899.84;;;19.01;89.87
20119;BME280;10220;42.716;23.306;2022-10-31T08:46:16;95918.09;;;18.80;94.65
20119;BME280;10220;42.716;23.306;2022-10-31T08:48:42;95910.38;;;18.34;96.24
20119;BME280;10220;42.716;23.306;2022-10-31T08:51:08;95890.13;;;18.46;100.00
20119;BME280;10220;42.716;23.306;2022-10-31T08:53:34;95915.34;;;19.14;100.00
20119;BME280;10220;42.716;23.306;2022-10-31T08:55:59;95890.72;;;18.76;93.49
20119;BME280;10220;42.716;23.306;2022-10-31T08:58:25;95908.50;;;19.13;98.78
20119;BME280;10220;42.716;23.306;2022-10-31T09:00:52;95902.22;;;19.14;92.67
20119;BME280;10220;42.716;23.306;2022-10-31T09:03:26;95916.44;;;18.90;92.25
20119;BME280;10220;42.716;23.306;2022-10-31T09:05:55;95907.63;;;19.24;92.56
20119;BME280;10220;42.716;23.306;2022-10-31T09:08:21;95917.97;;;19.31;92.42
20119;BME280;10220;42.716;23.306;2022-10-31T09:10:46;95908.13;;;19.70;89.40
20119;BME280;10220;42.716;23.306;2022-10-31T09:13:14;95906.75;;;19.84;88.34
20119;BME280;10220;42.716;23.306;2022-10-31T09:15:42;95889.06;;;19.47;88.48
20119;BME280;10220;42.716;23.306;2022-10-31T09:18:12;95876.34;;;19.39;91.58
20119;BME280;10220;42.716;23.306;2022-10-31T09:20:38;95877.03;;;19.67;91.78
20119;BME280;10220;42.716;23.306;2022-10-31T09:23:06;95871.81;;;20.05;91.53
20119;BME280;10220;42.716;23.306;2022-10-31T09:25:33;95857.81;;;19.83;89.67
20119;BME280;10220;42.716;23.306;2022-10-31T09:28:00;95888.47;;;20.32;85.37
20119;BME280;10220;42.716;23.306;2022-10-31T09:30:28;95879.28;;;20.34;87.57
20119;BME280;10220;42.716;23.306;2022-10-31T09:32:58;95878.66;;;20.49;87.58
20119;BME280;10220;42.716;23.306;2022-10-31T09:35:24;95883.03;;;20.64;83.27
20119;BME280;10220;42.716;23.306;2022-10-31T09:37:56;95876.50;;;20.88;85.79
20119;BME280;10220;42.716;23.306;2022-10-31T09:40:28;95889.75;;;20.98;78.32
20119;BME280;10220;42.716;23.306;2022-10-31T09:43:03;95884.78;;;21.02;80.82
20119;BME280;10220;42.716;23.306;2022-10-31T09:51:10;95881.63;;;21.98;71.13
20119;BME280;10220;42.716;23.306;2022-10-31T09:53:48;95881.44;;;21.69;72.33
20119;BME280;10220;42.716;23.306;2022-10-31T09:56:18;95870.94;;;21.47;74.30
20119;BME280;10220;42.716;23.306;2022-10-31T09:58:54;95850.50;;;21.28;73.65
20119;BME280;10220;42.716;23.306;2022-10-31T10:03:56;95871.22;;;21.46;72.37
20119;BME280;10220;42.716;23.306;2022-10-31T10:06:26;95856.50;;;21.91;67.37
20119;BME280;10220;42.716;23.306;2022-10-31T10:08:53;95852.78;;;21.87;70.61
20119;BME280;10220;42.716;23.306;2022-10-31T10:17:17;95845.03;;;22.17;66.62
20119;BME280;10220;42.716;23.306;2022-10-31T10:25:22;95843.31;;;22.47;64.78
20119;BME280;10220;42.716;23.306;2022-10-31T10:30:17;95832.50;;;22.53;63.14
20119;BME280;10220;42.716;23.306;2022-10-31T10:32:44;95828.56;;;22.56;60.61
20119;BME280;10220;42.716;23.306;2022-10-31T10:37:46;95831.75;;;22.68;59.38
20119;BME280;10220;42.716;23.306;2022-10-31T10:40:18;95800.66;;;23.14;58.28
20119;BME280;10220;42.716;23.306;2022-10-31T10:43:01;95817.59;;;23.28;58.54
20119;BME280;10220;42.716;23.306;2022-10-31T10:51:50;95790.28;;;23.72;55.64
20119;BME280;10220;42.716;23.306;2022-10-31T10:57:08;95800.28;;;23.90;54.40
20119;BME280;10220;42.716;23.306;2022-10-31T10:59:37;95759.88;;;23.40;52.78
20119;BME280;10220;42.716;23.306;2022-10-31T11:02:03;95782.91;;;23.35;54.43
20119;BME280;10220;42.716;23.306;2022-10-31T11:04:40;95783.66;;;22.96;54.87
20119;BME280;10220;42.716;23.306;2022-10-31T11:07:08;95719.44;;;22.70;54.91
20119;BME280;10220;42.716;23.306;2022-10-31T11:09:35;95776.84;;;23.04;54.03
20119;BME280;10220;42.716;23.306;2022-10-31T11:12:09;95777.91;;;23.13;56.64
20119;BME280;10220;42.716;23.306;2022-10-31T11:14:55;95770.47;;;23.30;54.53
20119;BME280;10220;42.716;23.306;2022-10-31T11:20:02;95785.53;;;23.55;54.33
20119;BME280;10220;42.716;23.306;2022-10-31T11:22:28;95741.09;;;23.32;54.14
20119;BME280;10220;42.716;23.306;2022-10-31T11:24:54;95754.06;;;23.43;53.79
20119;BME280;10220;42.716;23.306;2022-10-31T11:27:24;95732.41;;;23.11;54.43
20119;BME280;10220;42.716;23.306;2022-10-31T11:29:50;95779.69;;;23.48;52.94
20119;BME280;10220;42.716;23.306;2022-10-31T11:32:23;95750.31;;;23.54;53.15
20119;BME280;10220;42.716;23.306;2022-10-31T11:35:10;95698.31;;;23.05;52.71
20119;BME280;10220;42.716;23.306;2022-10-31T11:37:42;95749.81;;;23.42;52.20
20119;BME280;10220;42.716;23.306;2022-10-31T11:40:21;95738.22;;;23.28;53.03
20119;BME280;10220;42.716;23.306;2022-10-31T11:42:48;95753.75;;;23.60;52.61
20119;BME280;10220;42.716;23.306;2022-10-31T11:47:52;95764.88;;;23.57;54.71
20119;BME280;10220;42.716;23.306;2022-10-31T11:50:23;95751.13;;;23.40;53.90
20119;BME280;10220;42.716;23.306;2022-10-31T11:52:50;95735.03;;;23.41;53.61
20119;BME280;10220;42.716;23.306;2022-10-31T11:55:30;95744.75;;;23.61;52.26
20119;BME280;10220;42.716;23.306;2022-10-31T11:57:57;95735.81;;;23.42;52.48
20119;BME280;10220;42.716;23.306;2022-10-31T12:00:23;95738.19;;;23.38;52.91
20119;BME280;10220;42.716;23.306;2022-10-31T12:02:50;95739.22;;;23.57;52.52
20119;BME280;10220;42.716;23.306;2022-10-31T12:05:23;95725.69;;;23.63;51.46
20119;BME280;10220;42.716;23.306;2022-10-31T12:07:50;95729.06;;;23.84;52.35
20119;BME280;10220;42.716;23.306;2022-10-31T12:10:16;95737.81;;;23.89;51.87
20119;BME280;10220;42.716;23.306;2022-10-31T12:15:50;95724.81;;;23.88;52.18
20119;BME280;10220;42.716;23.306;2022-10-31T12:18:32;95656.16;;;23.38;52.24
20119;BME280;10220;42.716;23.306;2022-10-31T12:21:25;95724.31;;;23.86;52.59
20119;BME280;10220;42.716;23.306;2022-10-31T12:32:41;95719.31;;;23.79;52.29
20119;BME280;10220;42.716;23.306;2022-10-31T12:51:53;95719.03;;;23.86;51.04
20119;BME280;10220;42.716;23.306;2022-10-31T12:59:50;95708.94;;;23.88;51.00
20119;BME280;10220;42.716;23.306;2022-10-31T13:02:26;95696.41;;;24.03;50.73
20119;BME280;10220;42.716;23.306;2022-10-31T13:07:46;95713.59;;;24.11;50.96
20119;BME280;10220;42.716;23.306;2022-10-31T13:10:31;95713.13;;;24.04;51.39
20119;BME280;10220;42.716;23.306;2022-10-31T13:13:06;95705.66;;;24.11;50.42
20119;BME280;10220;42.716;23.306;2022-10-31T13:15:45;95701.19;;;24.06;50.07
20119;BME280;10220;42.716;23.306;2022-10-31T13:18:21;95665.31;;;23.75;50.37
20119;BME280;10220;42.716;23.306;2022-10-31T13:20:50;95682.41;;;24.03;49.57
20119;BME280;10220;42.716;23.306;2022-10-31T13:23:29;95717.44;;;24.33;49.52
20119;BME280;10220;42.716;23.306;2022-10-31T13:25:59;95661.28;;;23.88;50.16
20119;BME280;10220;42.716;23.306;2022-10-31T13:28:41;95728.41;;;24.17;50.12
20119;BME280;10220;42.716;23.306;2022-10-31T13:31:09;95712.56;;;24.07;49.81
20119;BME280;10220;42.716;23.306;2022-10-31T13:33:37;95714.19;;;23.98;49.39
20119;BME280;10220;42.716;23.306;2022-10-31T13:36:16;95705.50;;;23.92;50.01
20119;BME280;10220;42.716;23.306;2022-10-31T13:48:57;95696.19;;;24.00;49.59
20119;BME280;10220;42.716;23.306;2022-10-31T13:51:30;95705.22;;;23.94;49.51
20119;BME280;10220;42.716;23.306;2022-10-31T13:54:05;95717.41;;;23.90;50.04
20119;BME280;10220;42.716;23.306;2022-10-31T13:56:33;95703.44;;;23.79;50.13
20119;BME280;10220;42.716;23.306;2022-10-31T14:01:36;95722.81;;;23.50;52.55
20119;BME280;10220;42.716;23.306;2022-10-31T14:04:21;95722.25;;;23.63;48.60
20119;BME280;10220;42.716;23.306;2022-10-31T14:07:14;95677.03;;;23.50;48.15
20119;BME280;10220;42.716;23.306;2022-10-31T14:12:33;95715.69;;;23.51;48.98
20119;BME280;10220;42.716;23.306;2022-10-31T14:15:20;95716.19;;;23.58;49.71
20119;BME280;10220;42.716;23.306;2022-10-31T14:22:41;95734.69;;;23.58;50.18
20119;BME280;10220;42.716;23.306;2022-10-31T14:25:26;95727.03;;;23.51;49.70
20119;BME280;10220;42.716;23.306;2022-10-31T14:27:52;95710.59;;;23.59;48.65
20119;BME280;10220;42.716;23.306;2022-10-31T14:30:23;95718.31;;;23.51;49.25
20119;BME280;10220;42.716;23.306;2022-10-31T14:32:51;95718.59;;;23.44;49.64
20119;BME280;10220;42.716;23.306;2022-10-31T14:35:20;95727.03;;;23.51;50.08
20119;BME280;10220;42.716;23.306;2022-10-31T14:51:47;95753.03;;;23.14;52.70
20119;BME280;10220;42.716;23.306;2022-10-31T14:54:41;95753.03;;;23.14;53.01
20119;BME280;10220;42.716;23.306;2022-10-31T14:57:12;95752.75;;;23.06;53.35
20119;BME280;10220;42.716;23.306;2022-10-31T14:59:43;95738.22;;;22.89;54.44
20119;BME280;10220;42.716;23.306;2022-10-31T15:02:24;95752.47;;;22.63;55.47
20119;BME280;10220;42.716;23.306;2022-10-31T15:04:51;95745.59;;;22.52;56.55
20119;BME280;10220;42.716;23.306;2022-10-31T15:07:24;95749.25;;;22.41;58.75
20119;BME280;10220;42.716;23.306;2022-10-31T15:09:58;95739.66;;;22.20;59.12
20119;BME280;10220;42.716;23.306;2022-10-31T15:12:27;95749.47;;;22.25;59.14
20119;BME280;10220;42.716;23.306;2022-10-31T15:14:54;95747.66;;;22.30;61.41
20119;BME280;10220;42.716;23.306;2022-10-31T15:17:21;95760.50;;;22.12;63.19
20119;BME280;10220;42.716;23.306;2022-10-31T15:19:47;95751.78;;;22.06;62.78
20119;BME280;10220;42.716;23.306;2022-10-31T15:22:17;95739.31;;;21.87;65.49
20119;BME280;10220;42.716;23.306;2022-10-31T15:24:43;95754.06;;;21.83;64.50